< < Back
Terminal Aerodrome Forecast


Current Version              Previous Versions:   1  2  3  4  5  6  7  8  9  

Terminal Aerodrome Forecast

675
FTUS44 KBMX 281700
TAFTCL
TAF
KTCL 281720Z 2818/2918 32012G18KT P6SM FEW050
     FM290100 34005KT P6SM SKC
     FM291500 35010KT P6SM SKC=

Latest METAR

811
SAUS70 KWBC 282200 RRP
MTRTCL
METAR KTCL 282153Z 34010KT 10SM CLR 32/17 A2995 RMK AO2 SLP140
T03220172


USA.gov is the U.S. government's official web portal to all federal, state and local government web resources and services.